createdAt,value
2019-03-27T00:00:47.484Z,11.90
2019-03-27T00:03:18.176Z,10.30
2019-03-27T00:05:48.854Z,10.93
2019-03-27T00:08:20.015Z,11.73
2019-03-27T00:10:50.704Z,10.60
2019-03-27T00:13:21.439Z,11.27
2019-03-27T00:15:52.134Z,11.10
2019-03-27T00:18:22.826Z,11.77
2019-03-27T00:20:53.529Z,11.80
2019-03-27T00:23:24.231Z,11.43
2019-03-27T00:25:54.921Z,12.93
2019-03-27T00:28:25.641Z,11.40
2019-03-27T00:30:56.306Z,10.77
2019-03-27T00:33:27.026Z,11.57
2019-03-27T00:35:57.792Z,11.03
2019-03-27T00:38:28.515Z,11.80
2019-03-27T00:40:59.202Z,11.20
2019-03-27T00:43:29.886Z,10.93
2019-03-27T00:46:00.687Z,10.97
2019-03-27T00:48:31.385Z,13.30
2019-03-27T00:51:02.065Z,12.40
2019-03-27T00:53:32.748Z,12.93
2019-03-27T00:56:04.479Z,13.23
2019-03-27T00:58:35.203Z,12.57
2019-03-27T01:01:14.215Z,12.97
2019-03-27T01:03:45.061Z,12.63
2019-03-27T01:06:15.832Z,13.67
2019-03-27T01:08:46.539Z,13.67
2019-03-27T01:11:17.224Z,12.67
2019-03-27T01:13:47.919Z,13.37
2019-03-27T01:16:18.602Z,14.03
2019-03-27T01:18:49.331Z,14.93
2019-03-27T01:21:20.079Z,13.87
2019-03-27T01:23:50.792Z,14.27
2019-03-27T01:26:21.492Z,13.37
2019-03-27T01:28:52.189Z,14.00
2019-03-27T01:31:22.891Z,12.90
2019-03-27T01:33:53.583Z,12.60
2019-03-27T01:36:24.267Z,13.37
2019-03-27T01:38:54.960Z,14.17
2019-03-27T01:41:25.677Z,13.03
2019-03-27T01:43:56.401Z,14.50
2019-03-27T01:46:27.102Z,15.00
2019-03-27T01:48:57.815Z,13.10
2019-03-27T01:51:28.486Z,14.80
2019-03-27T01:53:59.241Z,14.67
2019-03-27T01:56:29.949Z,14.93
2019-03-27T01:59:00.635Z,14.77
2019-03-27T02:01:31.327Z,15.50
2019-03-27T02:04:02.090Z,15.83
2019-03-27T02:06:32.833Z,15.60
2019-03-27T02:09:04.388Z,14.73
2019-03-27T02:11:35.056Z,16.20
2019-03-27T02:14:05.817Z,15.00
2019-03-27T02:16:36.470Z,16.40
2019-03-27T02:19:07.183Z,16.47
2019-03-27T02:21:38.833Z,16.53
2019-03-27T02:24:09.507Z,17.83
2019-03-27T02:26:40.183Z,17.90
2019-03-27T02:29:10.879Z,17.43
2019-03-27T02:31:41.552Z,19.30
2019-03-27T02:34:12.264Z,18.53
2019-03-27T02:36:42.928Z,17.63
2019-03-27T02:39:13.620Z,19.17
2019-03-27T02:41:44.293Z,22.37
2019-03-27T02:44:14.996Z,20.60
2019-03-27T02:46:45.686Z,18.03
2019-03-27T02:49:16.392Z,19.47
2019-03-27T02:51:47.101Z,18.70
2019-03-27T02:54:17.781Z,20.33
2019-03-27T02:56:48.448Z,18.63
2019-03-27T02:59:19.191Z,19.80
2019-03-27T03:01:49.884Z,18.97
2019-03-27T03:04:20.588Z,20.50
2019-03-27T03:06:51.258Z,19.00
2019-03-27T03:09:21.974Z,21.60
2019-03-27T03:11:52.704Z,20.40
2019-03-27T03:14:23.402Z,21.07
2019-03-27T03:16:54.090Z,21.13
2019-03-27T03:19:24.781Z,22.13
2019-03-27T03:21:55.483Z,20.30
2019-03-27T03:24:26.199Z,18.20
2019-03-27T03:26:56.867Z,18.97
2019-03-27T03:29:27.635Z,19.90
2019-03-27T03:31:58.354Z,21.13
2019-03-27T03:34:29.210Z,23.57
2019-03-27T03:36:59.907Z,22.63
2019-03-27T03:39:30.625Z,23.40
2019-03-27T03:42:01.326Z,25.10
2019-03-27T03:44:32.311Z,25.70
2019-03-27T03:47:02.986Z,25.73
2019-03-27T03:49:33.810Z,24.37
2019-03-27T03:52:04.923Z,24.77
2019-03-27T03:54:35.944Z,25.03
2019-03-27T03:57:08.217Z,24.57
2019-03-27T03:59:40.095Z,22.67
2019-03-27T04:02:10.819Z,25.37
2019-03-27T04:04:43.006Z,25.80
2019-03-27T04:07:13.713Z,23.00
2019-03-27T04:09:44.420Z,24.70
2019-03-27T04:12:15.123Z,25.37
2019-03-27T04:14:45.933Z,27.77
2019-03-27T04:17:17.940Z,28.77
2019-03-27T04:19:48.909Z,27.50
2019-03-27T04:22:19.588Z,26.60
2019-03-27T04:24:50.301Z,26.13
2019-03-27T04:27:20.978Z,28.53
2019-03-27T04:29:51.704Z,27.77
2019-03-27T04:32:22.370Z,27.43
2019-03-27T04:34:53.140Z,27.63
2019-03-27T04:37:23.827Z,27.27
2019-03-27T04:39:54.502Z,25.10
2019-03-27T04:42:25.215Z,27.67
2019-03-27T04:44:55.896Z,27.03
2019-03-27T04:47:32.399Z,21.53
2019-03-27T04:49:58.973Z,20.47
2019-03-27T04:52:29.739Z,19.20
2019-03-27T04:55:00.438Z,19.37
2019-03-27T04:57:32.111Z,21.23
2019-03-27T05:00:02.783Z,17.73
2019-03-27T05:02:33.472Z,19.30
2019-03-27T05:05:04.768Z,21.40
2019-03-27T05:07:35.471Z,18.07
2019-03-27T05:10:06.252Z,21.77
2019-03-27T05:12:38.570Z,21.77
2019-03-27T05:15:11.175Z,24.30
2019-03-27T05:17:46.272Z,23.50
2019-03-27T05:20:14.360Z,24.87
2019-03-27T05:22:45.103Z,25.63
2019-03-27T05:25:15.807Z,27.70
2019-03-27T05:27:46.509Z,25.80
2019-03-27T05:30:27.017Z,29.63
2019-03-27T05:32:58.781Z,26.90
2019-03-27T05:35:29.480Z,28.17
2019-03-27T05:38:00.172Z,28.10
2019-03-27T05:40:30.875Z,28.57
2019-03-27T05:43:02.671Z,28.17
2019-03-27T05:45:33.517Z,27.30
2019-03-27T05:48:04.383Z,26.50
2019-03-27T05:50:35.247Z,25.23
2019-03-27T05:53:05.955Z,25.27
2019-03-27T05:55:36.647Z,28.03
2019-03-27T05:58:07.358Z,23.57
2019-03-27T06:00:38.214Z,25.57
2019-03-27T06:03:08.994Z,25.73
2019-03-27T06:05:39.671Z,23.83
2019-03-27T06:08:10.640Z,26.87
2019-03-27T06:10:41.383Z,23.00
2019-03-27T06:13:12.075Z,20.80
2019-03-27T06:15:45.159Z,19.33
2019-03-27T06:18:15.197Z,15.63
2019-03-27T06:20:45.915Z,15.60
2019-03-27T06:23:16.655Z,14.57
2019-03-27T06:25:47.424Z,16.03
2019-03-27T06:28:18.151Z,16.90
2019-03-27T06:30:48.843Z,16.10
2019-03-27T06:33:19.615Z,15.03
2019-03-27T06:35:51.292Z,14.40
2019-03-27T06:38:22.299Z,15.40
2019-03-27T06:40:53.015Z,15.90
2019-03-27T06:43:23.715Z,16.03
2019-03-27T06:45:54.446Z,15.80
2019-03-27T06:48:26.394Z,17.17
2019-03-27T06:50:57.428Z,17.00
2019-03-27T06:53:28.209Z,17.20
2019-03-27T06:55:58.882Z,15.73
2019-03-27T06:58:29.611Z,17.27
2019-03-27T07:01:00.310Z,17.23
2019-03-27T07:03:31.024Z,17.67
2019-03-27T07:06:01.706Z,16.90
2019-03-27T07:08:32.404Z,16.10
2019-03-27T07:11:04.052Z,18.63
2019-03-27T07:13:34.751Z,18.17
2019-03-27T07:16:05.458Z,16.93
2019-03-27T07:18:40.471Z,17.33
2019-03-27T07:21:08.535Z,16.77
2019-03-27T07:23:39.258Z,16.70
2019-03-27T07:26:09.948Z,16.70
2019-03-27T07:28:40.671Z,15.80
2019-03-27T07:31:11.359Z,15.13
2019-03-27T07:33:42.108Z,16.67
2019-03-27T07:36:12.815Z,14.60
2019-03-27T07:38:43.559Z,12.93
2019-03-27T07:41:14.247Z,13.27
2019-03-27T07:43:44.952Z,14.70
2019-03-27T07:46:15.723Z,14.00
2019-03-27T07:48:53.657Z,14.07
2019-03-27T07:51:18.817Z,13.80
2019-03-27T07:53:49.540Z,15.23
2019-03-27T07:56:20.228Z,13.00
2019-03-27T07:58:50.943Z,11.37
2019-03-27T08:01:21.651Z,13.40
2019-03-27T08:03:52.362Z,13.77
2019-03-27T08:06:23.056Z,12.80
2019-03-27T08:08:53.843Z,12.80
2019-03-27T08:11:24.698Z,13.10
2019-03-27T08:13:55.559Z,12.40
2019-03-27T08:16:27.304Z,12.50
2019-03-27T08:19:07.376Z,13.83
2019-03-27T08:21:31.353Z,15.70
2019-03-27T08:24:02.164Z,15.40
2019-03-27T08:26:32.837Z,13.10
2019-03-27T08:29:03.599Z,11.70
2019-03-27T08:31:34.278Z,15.00
2019-03-27T08:34:05.055Z,15.73
2019-03-27T08:36:35.733Z,14.40
2019-03-27T08:39:08.518Z,14.50
2019-03-27T08:41:39.216Z,11.40
2019-03-27T08:44:09.931Z,10.57
2019-03-27T08:46:40.612Z,12.77
2019-03-27T08:49:21.667Z,12.60
2019-03-27T08:51:43.695Z,10.80
2019-03-27T08:54:14.416Z,11.70
2019-03-27T08:56:45.096Z,10.80
2019-03-27T08:59:15.803Z,11.10
2019-03-27T09:01:46.500Z,11.50
2019-03-27T09:04:17.207Z,8.70
2019-03-27T09:06:47.927Z,10.20
2019-03-27T09:09:18.620Z,9.17
2019-03-27T09:11:49.311Z,8.20
2019-03-27T09:14:19.989Z,8.27
2019-03-27T09:16:50.727Z,7.40
2019-03-27T09:19:34.530Z,4.47
2019-03-27T09:21:53.819Z,5.33
2019-03-27T09:24:24.479Z,6.40
2019-03-27T09:26:55.180Z,6.73
2019-03-27T09:29:25.865Z,7.80
2019-03-27T09:31:56.551Z,7.83
2019-03-27T09:34:27.242Z,7.80
2019-03-27T09:36:57.950Z,8.40
2019-03-27T09:39:28.701Z,8.50
2019-03-27T09:41:59.409Z,9.73
2019-03-27T09:44:30.090Z,8.63
2019-03-27T09:47:00.775Z,8.90
2019-03-27T09:49:31.468Z,8.70
2019-03-27T09:52:02.187Z,9.40
2019-03-27T09:54:32.865Z,9.30
2019-03-27T09:57:03.573Z,8.43
2019-03-27T09:59:34.277Z,10.00
2019-03-27T10:02:04.967Z,9.90
2019-03-27T10:04:35.678Z,8.37
2019-03-27T10:07:06.361Z,8.97
2019-03-27T10:09:37.079Z,7.80
2019-03-27T10:12:07.748Z,9.10
2019-03-27T10:14:38.452Z,7.97
2019-03-27T10:17:09.146Z,9.47
2019-03-27T10:19:39.808Z,7.30
2019-03-27T10:22:10.504Z,8.30
2019-03-27T10:24:41.270Z,7.10
2019-03-27T10:27:11.953Z,8.10
2019-03-27T10:29:42.699Z,7.60
2019-03-27T10:32:13.404Z,7.30
2019-03-27T10:34:44.130Z,7.10
2019-03-27T10:37:14.831Z,7.10
2019-03-27T10:39:45.520Z,7.33
2019-03-27T10:42:16.199Z,6.20
2019-03-27T10:44:46.911Z,6.90
2019-03-27T10:47:17.626Z,6.87
2019-03-27T10:49:48.339Z,6.67
2019-03-27T10:52:19.031Z,6.87
2019-03-27T10:54:49.739Z,7.27
2019-03-27T10:57:20.463Z,7.43
2019-03-27T10:59:51.200Z,5.10
2019-03-27T11:02:21.937Z,5.47
2019-03-27T11:04:52.623Z,6.13
2019-03-27T11:07:23.296Z,5.30
2019-03-27T11:09:54.003Z,4.10
2019-03-27T11:12:24.701Z,4.33
2019-03-27T11:14:55.379Z,4.20
2019-03-27T11:17:26.101Z,4.33
2019-03-27T11:19:56.759Z,4.50
2019-03-27T11:22:27.447Z,4.63
2019-03-27T11:24:58.115Z,5.37
2019-03-27T11:27:28.813Z,6.50
2019-03-27T11:29:59.492Z,6.17
2019-03-27T11:32:30.221Z,6.13
2019-03-27T11:35:00.911Z,5.30
2019-03-27T11:37:31.601Z,5.37
2019-03-27T11:40:02.294Z,4.30
2019-03-27T11:42:33.001Z,4.40
2019-03-27T11:45:03.812Z,6.80
2019-03-27T11:47:34.516Z,5.00
2019-03-27T11:50:06.000Z,5.23
2019-03-27T11:52:36.704Z,5.50
2019-03-27T11:55:07.533Z,5.77
2019-03-27T11:57:38.235Z,4.70
2019-03-27T12:00:10.125Z,4.43
2019-03-27T12:02:40.821Z,4.83
2019-03-27T12:05:11.691Z,4.40
2019-03-27T12:07:42.348Z,4.80
2019-03-27T12:10:13.287Z,5.00
2019-03-27T12:12:43.970Z,4.93
2019-03-27T12:15:17.127Z,5.30
2019-03-27T12:17:47.848Z,5.60
2019-03-27T12:20:18.515Z,5.47
2019-03-27T12:22:57.557Z,4.93
2019-03-27T12:25:21.619Z,5.60
2019-03-27T12:27:52.407Z,6.00
2019-03-27T12:30:23.118Z,6.27
2019-03-27T12:32:53.827Z,5.10
2019-03-27T12:35:24.532Z,5.57
2019-03-27T12:37:55.371Z,4.97
2019-03-27T12:40:26.052Z,5.60
2019-03-27T12:42:56.952Z,5.63
2019-03-27T12:45:27.634Z,5.33
2019-03-27T12:47:58.378Z,4.67
2019-03-27T12:50:29.061Z,4.70
2019-03-27T12:52:59.818Z,6.00
2019-03-27T12:55:30.532Z,5.60
2019-03-27T12:58:01.246Z,5.63
2019-03-27T13:00:31.936Z,4.93
2019-03-27T13:03:02.659Z,4.93
2019-03-27T13:05:33.340Z,5.10
2019-03-27T13:08:04.176Z,5.37
2019-03-27T13:10:34.844Z,3.97
2019-03-27T13:13:05.581Z,4.47
2019-03-27T13:15:36.259Z,4.93
2019-03-27T13:18:07.066Z,4.13
2019-03-27T13:20:37.757Z,4.47
2019-03-27T13:23:08.484Z,4.60
2019-03-27T13:25:39.179Z,4.10
2019-03-27T13:28:09.888Z,3.90
2019-03-27T13:30:40.578Z,4.43
2019-03-27T13:33:11.328Z,6.07
2019-03-27T13:35:42.018Z,6.40
2019-03-27T13:38:12.719Z,6.60
2019-03-27T13:40:43.395Z,8.00
2019-03-27T13:43:14.181Z,7.10
2019-03-27T13:45:45.096Z,7.50
2019-03-27T13:48:15.800Z,7.00
2019-03-27T13:50:46.491Z,6.43
2019-03-27T13:53:17.195Z,6.43
2019-03-27T13:55:47.924Z,6.47
2019-03-27T13:58:18.621Z,6.33
2019-03-27T14:00:49.347Z,6.40
2019-03-27T14:03:20.034Z,6.43
2019-03-27T14:05:50.752Z,7.00
2019-03-27T14:08:21.425Z,6.17
2019-03-27T14:10:52.107Z,6.37
2019-03-27T14:13:22.864Z,5.00
2019-03-27T14:15:53.675Z,5.80
2019-03-27T14:18:24.388Z,6.13
2019-03-27T14:20:55.103Z,5.80
2019-03-27T14:23:25.773Z,6.13
2019-03-27T14:25:56.483Z,6.40
2019-03-27T14:28:27.172Z,6.93
2019-03-27T14:30:58.779Z,6.90
2019-03-27T14:33:29.490Z,5.83
2019-03-27T14:36:00.292Z,5.37
2019-03-27T14:38:31.039Z,5.17
2019-03-27T14:41:01.737Z,5.63
2019-03-27T14:43:32.441Z,5.20
2019-03-27T14:46:03.125Z,5.00
2019-03-27T14:48:33.812Z,5.30
2019-03-27T14:51:04.551Z,4.63
2019-03-27T14:53:35.263Z,5.53
2019-03-27T14:56:06.039Z,5.20
2019-03-27T14:58:37.708Z,4.87
2019-03-27T15:01:08.411Z,5.50
2019-03-27T15:03:39.104Z,4.90
2019-03-27T15:06:09.800Z,5.40
2019-03-27T15:08:40.488Z,4.87
2019-03-27T15:11:11.170Z,5.30
2019-03-27T15:13:41.915Z,4.80
2019-03-27T15:16:12.664Z,5.10
2019-03-27T15:18:43.375Z,5.23
2019-03-27T15:21:14.117Z,5.77
2019-03-27T15:23:44.877Z,4.90
2019-03-27T15:26:15.596Z,4.80
2019-03-27T15:28:46.279Z,4.73
2019-03-27T15:31:20.611Z,5.63
2019-03-27T15:33:49.402Z,5.13
2019-03-27T15:36:20.111Z,5.63
2019-03-27T15:38:50.783Z,5.27
2019-03-27T15:41:21.488Z,5.37
2019-03-27T15:43:52.177Z,6.07
2019-03-27T15:46:22.936Z,5.83
2019-03-27T15:48:53.700Z,5.60
2019-03-27T15:51:24.423Z,5.90
2019-03-27T15:53:55.228Z,5.53
2019-03-27T15:56:25.926Z,5.70
2019-03-27T15:58:57.584Z,5.70
2019-03-27T16:01:28.340Z,5.33
2019-03-27T16:03:59.012Z,5.97
2019-03-27T16:06:30.684Z,5.90
2019-03-27T16:09:01.377Z,6.33
2019-03-27T16:11:33.956Z,6.30
2019-03-27T16:14:04.670Z,6.17
2019-03-27T16:16:35.363Z,6.13
2019-03-27T16:19:06.039Z,6.63
2019-03-27T16:21:37.863Z,6.17
2019-03-27T16:24:08.703Z,6.97
2019-03-27T16:26:39.398Z,6.30
2019-03-27T16:29:10.084Z,6.33
2019-03-27T16:31:40.787Z,7.20
2019-03-27T16:34:11.507Z,6.70
2019-03-27T16:36:42.220Z,5.73
2019-03-27T16:39:13.047Z,6.40
2019-03-27T16:41:43.818Z,6.07
2019-03-27T16:44:14.523Z,6.40
2019-03-27T16:46:45.225Z,6.23
2019-03-27T16:49:16.895Z,6.93
2019-03-27T16:51:47.591Z,6.93
2019-03-27T16:54:18.284Z,6.80
2019-03-27T16:56:49.048Z,7.90
2019-03-27T16:59:19.739Z,6.97
2019-03-27T17:01:50.439Z,6.70
2019-03-27T17:04:21.112Z,7.20
2019-03-27T17:06:51.848Z,6.90
2019-03-27T17:09:22.529Z,7.87
2019-03-27T17:11:53.226Z,7.20
2019-03-27T17:14:23.917Z,6.60
2019-03-27T17:16:54.632Z,7.00
2019-03-27T17:19:25.339Z,7.97
2019-03-27T17:21:57.507Z,7.73
2019-03-27T17:24:28.226Z,7.30
2019-03-27T17:26:58.976Z,6.73
2019-03-27T17:29:29.727Z,6.80
2019-03-27T17:32:00.853Z,7.40
2019-03-27T17:34:31.579Z,7.63
2019-03-27T17:37:02.287Z,7.17
2019-03-27T17:39:32.997Z,7.63
2019-03-27T17:42:03.728Z,8.57
2019-03-27T17:44:34.440Z,8.33
2019-03-27T17:47:05.195Z,8.33
2019-03-27T17:49:35.892Z,7.50
2019-03-27T17:52:06.609Z,8.53
2019-03-27T17:54:37.342Z,9.97
2019-03-27T17:57:08.049Z,9.73
2019-03-27T17:59:38.733Z,8.60
2019-03-27T18:02:09.448Z,9.10
2019-03-27T18:04:40.148Z,8.57
2019-03-27T18:07:10.886Z,8.67
2019-03-27T18:09:41.570Z,8.27
2019-03-27T18:12:12.297Z,8.20
2019-03-27T18:14:43.019Z,11.63
2019-03-27T18:17:13.767Z,12.83
2019-03-27T18:19:44.515Z,9.20
2019-03-27T18:22:15.262Z,10.93
2019-03-27T18:24:45.958Z,12.33
2019-03-27T18:27:16.682Z,10.47
2019-03-27T18:29:47.389Z,12.40
2019-03-27T18:32:18.150Z,26.13
2019-03-27T18:34:48.844Z,14.43
2019-03-27T18:37:19.637Z,13.30
2019-03-27T18:39:50.336Z,9.00
2019-03-27T18:42:21.057Z,15.67
2019-03-27T18:44:51.785Z,10.93
2019-03-27T18:47:22.522Z,19.13
2019-03-27T18:49:53.241Z,23.70
2019-03-27T18:52:23.960Z,11.20
2019-03-27T18:54:54.656Z,11.00
2019-03-27T18:57:25.404Z,10.20
2019-03-27T18:59:56.100Z,9.10
2019-03-27T19:02:26.805Z,9.83
2019-03-27T19:04:57.536Z,9.50
2019-03-27T19:07:28.282Z,9.80
2019-03-27T19:09:58.972Z,12.57
2019-03-27T19:12:29.707Z,11.57
2019-03-27T19:15:00.479Z,11.27
2019-03-27T19:17:31.275Z,10.43
2019-03-27T19:20:01.950Z,15.03
2019-03-27T19:22:32.752Z,13.63
2019-03-27T19:25:03.657Z,11.90
2019-03-27T19:27:34.407Z,9.50
2019-03-27T19:30:05.911Z,9.20
2019-03-27T19:32:36.883Z,10.87
2019-03-27T19:35:07.655Z,10.63
2019-03-27T19:37:38.468Z,10.40
2019-03-27T19:40:09.243Z,11.43
2019-03-27T19:42:40.048Z,11.37
2019-03-27T19:45:11.019Z,13.83
2019-03-27T19:47:41.858Z,10.83
2019-03-27T19:50:12.543Z,11.43
2019-03-27T19:52:43.287Z,9.63
2019-03-27T19:55:13.988Z,10.93
2019-03-27T19:57:44.719Z,14.97
2019-03-27T20:00:15.865Z,14.00
2019-03-27T20:02:46.680Z,12.00
2019-03-27T20:05:17.378Z,10.53
2019-03-27T20:07:48.110Z,10.57
2019-03-27T20:10:18.897Z,11.00
2019-03-27T20:12:49.624Z,12.17
2019-03-27T20:15:20.347Z,10.40
2019-03-27T20:17:51.052Z,10.47
2019-03-27T20:20:21.760Z,10.70
2019-03-27T20:22:52.530Z,11.50
2019-03-27T20:25:23.212Z,10.00
2019-03-27T20:27:54.902Z,10.63
2019-03-27T20:30:27.036Z,10.70
2019-03-27T20:32:58.106Z,11.40
2019-03-27T20:35:29.697Z,10.90
2019-03-27T20:38:00.483Z,12.13
2019-03-27T20:40:31.179Z,12.17
2019-03-27T20:43:01.888Z,13.03
2019-03-27T20:45:32.600Z,12.23
2019-03-27T20:48:03.370Z,13.80
2019-03-27T20:50:34.075Z,11.67
2019-03-27T20:53:04.877Z,12.00
2019-03-27T20:55:35.634Z,12.07
2019-03-27T20:58:06.419Z,12.17
2019-03-27T21:00:37.100Z,12.33
2019-03-27T21:03:07.927Z,13.03
2019-03-27T21:05:38.628Z,13.27
2019-03-27T21:08:09.439Z,14.47
2019-03-27T21:10:40.377Z,15.27
2019-03-27T21:13:11.188Z,12.63
2019-03-27T21:15:41.907Z,13.00
2019-03-27T21:18:12.632Z,13.00
2019-03-27T21:20:43.359Z,12.40
2019-03-27T21:23:14.117Z,12.50
2019-03-27T21:25:44.814Z,13.20
2019-03-27T21:28:15.548Z,12.60
2019-03-27T21:30:46.307Z,12.97
2019-03-27T21:33:17.044Z,14.03
2019-03-27T21:35:47.731Z,13.80
2019-03-27T21:38:18.462Z,13.87
2019-03-27T21:40:49.236Z,13.70
2019-03-27T21:43:19.976Z,12.40
2019-03-27T21:45:50.700Z,13.97
2019-03-27T21:48:21.492Z,14.37
2019-03-27T21:50:52.195Z,13.97
2019-03-27T21:53:22.996Z,14.77
2019-03-27T21:55:53.727Z,14.50
2019-03-27T21:58:24.450Z,13.33
2019-03-27T22:00:55.195Z,12.47
2019-03-27T22:03:25.908Z,14.37
2019-03-27T22:05:56.687Z,13.23
2019-03-27T22:08:27.409Z,13.60
2019-03-27T22:10:58.112Z,14.17
2019-03-27T22:13:28.844Z,13.87
2019-03-27T22:15:59.595Z,14.47
2019-03-27T22:18:30.377Z,12.83
2019-03-27T22:21:01.133Z,13.77
2019-03-27T22:23:31.845Z,13.90
2019-03-27T22:26:02.602Z,13.77
2019-03-27T22:28:33.299Z,13.47
2019-03-27T22:31:04.017Z,14.17
2019-03-27T22:33:34.699Z,13.90
2019-03-27T22:36:05.396Z,14.37
2019-03-27T22:38:36.103Z,13.97
2019-03-27T22:41:06.826Z,13.00
2019-03-27T22:43:37.499Z,14.47
2019-03-27T22:46:08.183Z,12.00
2019-03-27T22:48:38.887Z,13.90
2019-03-27T22:51:09.611Z,13.80
2019-03-27T22:53:40.385Z,13.00
2019-03-27T22:56:11.135Z,14.03
2019-03-27T22:58:41.849Z,13.30
2019-03-27T23:01:12.984Z,13.80
2019-03-27T23:03:45.383Z,13.40
2019-03-27T23:06:16.071Z,13.30
2019-03-27T23:08:46.776Z,13.87
2019-03-27T23:11:17.491Z,14.30
2019-03-27T23:13:48.219Z,13.23
2019-03-27T23:16:18.928Z,14.63
2019-03-27T23:18:49.679Z,14.10
2019-03-27T23:21:20.385Z,15.20
2019-03-27T23:23:51.096Z,14.67
2019-03-27T23:26:21.835Z,14.63
2019-03-27T23:28:52.595Z,14.30
2019-03-27T23:31:23.286Z,14.43
2019-03-27T23:33:54.080Z,13.83
2019-03-27T23:36:25.765Z,14.60
2019-03-27T23:38:56.540Z,13.63
2019-03-27T23:41:27.264Z,13.43
2019-03-27T23:43:57.971Z,14.13
2019-03-27T23:46:28.656Z,14.47
2019-03-27T23:48:59.393Z,14.17
2019-03-27T23:51:30.151Z,14.87
2019-03-27T23:54:01.787Z,13.00
2019-03-27T23:56:33.485Z,13.40
2019-03-27T23:59:04.176Z,13.37
